Time;durP1;ratioP1;P1;durP2;ratioP2;P2;SDS_P1;SDS_P2;PMS_P1;PMS_P2;Temp;Humidity;BMP_temperature;BMP_pressure;BME280_temperature;BME280_humidity;BME280_pressure;Samples;Min_cycle;Max_cycle;Signal;HPM_P1;HPM_P2
2021/04/04 00:00:21;;;;;;;22.30;16.15;;;;;;;1.21;100.00;100727.30;1725389;83;21139;-86
2021/04/04 00:02:53;;;;;;;22.52;15.78;;;;;;;1.21;100.00;100729.01;1725361;83;21651;-86
2021/04/04 00:05:21;;;;;;;16.10;13.35;;;;;;;1.17;100.00;100735.97;1725765;81;21210;-86
2021/04/04 00:07:51;;;;;;;20.35;14.83;;;;;;;1.14;100.00;100736.09;1725352;83;21148;-86
2021/04/04 00:10:20;;;;;;;23.38;16.25;;;;;;;1.13;100.00;100736.98;1725368;83;21635;-86
2021/04/04 00:12:48;;;;;;;27.02;17.27;;;;;;;1.09;100.00;100740.52;1725400;83;21118;-86
2021/04/04 00:15:17;;;;;;;25.37;16.97;;;;;;;1.07;100.00;100741.04;1725409;83;21166;-86
2021/04/04 00:17:47;;;;;;;20.70;15.18;;;;;;;1.04;100.00;100747.54;1725374;83;21392;-86
2021/04/04 00:20:18;;;;;;;23.12;16.67;;;;;;;1.02;100.00;100747.60;1725276;83;21199;-86
2021/04/04 00:22:47;;;;;;;22.73;17.23;;;;;;;1.02;100.00;100751.45;1728545;83;28158;-86
2021/04/04 00:25:19;;;;;;;24.30;17.55;;;;;;;1.02;100.00;100742.47;1716329;83;21207;-86
2021/04/04 00:27:47;;;;;;;23.00;16.40;;;;;;;1.02;100.00;100730.94;1728956;83;21167;-86
2021/04/04 00:30:19;;;;;;;24.23;17.70;;;;;;;1.02;100.00;100735.20;1716271;83;21425;-86
2021/04/04 00:32:48;;;;;;;24.87;17.32;;;;;;;1.01;100.00;100734.38;1728842;83;21116;-86
2021/04/04 00:35:25;;;;;;;26.52;17.65;;;;;;;1.03;100.00;100730.47;1729012;83;21775;-86
2021/04/04 00:37:54;;;;;;;24.43;17.55;;;;;;;1.03;100.00;100733.04;1729048;83;21170;-86
2021/04/04 00:40:27;;;;;;;23.85;16.67;;;;;;;1.05;100.00;100734.66;1729005;82;21566;-86
2021/04/04 00:42:56;;;;;;;21.52;16.12;;;;;;;1.06;100.00;100736.34;1716350;83;21389;-86
2021/04/04 00:45:28;;;;;;;20.17;15.78;;;;;;;1.08;100.00;100737.12;1728931;83;21182;-86
2021/04/04 00:47:56;;;;;;;23.77;17.30;;;;;;;1.10;100.00;100731.52;1728944;81;21233;-86
2021/04/04 00:50:30;;;;;;;24.23;17.02;;;;;;;1.13;100.00;100733.13;1728980;83;21160;-86
2021/04/04 00:52:59;;;;;;;22.98;16.62;;;;;;;1.13;100.00;100730.56;1728816;83;21143;-86
2021/04/04 00:55:28;;;;;;;22.73;16.25;;;;;;;1.13;100.00;100728.00;1728940;83;22327;-86
2021/04/04 00:57:57;;;;;;;22.52;16.42;;;;;;;1.11;100.00;100731.05;1728874;83;21170;-86
2021/04/04 01:00:29;;;;;;;23.85;16.85;;;;;;;1.12;100.00;100728.06;1728939;81;21130;-86
2021/04/04 01:02:58;;;;;;;24.98;16.40;;;;;;;1.10;100.00;100724.25;1716248;83;21231;-86
2021/04/04 01:05:35;;;;;;;22.42;16.17;;;;;;;1.09;100.00;100727.70;1729039;83;21187;-86
2021/04/04 01:08:00;;;;;;;22.75;16.42;;;;;;;1.08;100.00;100731.17;1724617;83;21625;-86
2021/04/04 01:10:40;;;;;;;20.10;15.55;;;;;;;1.07;100.00;100728.22;1728834;83;21215;-86
2021/04/04 01:13:43;;;;;;;23.42;17.23;;;;;;;1.10;100.00;100731.94;1729009;83;21140;-86
2021/04/04 01:16:16;;;;;;;27.60;17.55;;;;;;;1.14;100.00;100729.68;1728826;83;21211;-86
2021/04/04 01:18:58;;;;;;;26.82;17.92;;;;;;;1.17;100.00;100721.86;1728239;81;21142;-86
2021/04/04 01:21:34;;;;;;;24.00;15.98;;;;;;;1.18;100.00;100713.73;1728002;83;21467;-86
2021/04/04 01:24:34;;;;;;;19.95;14.53;;;;;;;1.17;100.00;100715.91;1728247;83;21187;-86
2021/04/04 01:27:18;;;;;;;18.80;13.28;;;;;;;1.17;100.00;100707.75;1728937;81;21107;-87
2021/04/04 01:29:49;;;;;;;26.95;19.07;;;;;;;1.20;100.00;100712.79;1727122;83;21143;-86
2021/04/04 01:32:17;;;;;;;35.75;21.87;;;;;;;1.19;100.00;100710.29;1729142;83;21088;-86
2021/04/04 01:34:46;;;;;;;47.48;26.90;;;;;;;1.20;100.00;100714.08;1728990;83;21378;-86
2021/04/04 01:37:16;;;;;;;42.15;25.55;;;;;;;1.22;100.00;100717.43;1724311;83;21095;-86
2021/04/04 01:39:50;;;;;;;29.52;18.35;;;;;;;1.28;100.00;100714.25;1729166;83;21245;-86
2021/04/04 01:42:21;;;;;;;28.30;18.12;;;;;;;1.34;100.00;100719.16;1698971;83;21198;-86
2021/04/04 01:44:52;;;;;;;;;;;;;;;1.38;100.00;100715.61;1731672;83;21639;-86
2021/04/04 01:47:22;;;;;;;23.75;15.65;;;;;;;1.44;100.00;100710.72;1729147;83;22249;-86
2021/04/04 01:49:52;;;;;;;24.12;16.15;;;;;;;1.50;100.00;100713.88;1716291;83;21223;-86
2021/04/04 01:52:22;;;;;;;23.85;15.72;;;;;;;1.56;100.00;100714.94;1725219;83;21151;-86
2021/04/04 01:54:51;;;;;;;25.00;15.95;;;;;;;1.60;100.00;100705.86;1716425;83;21722;-86
2021/04/04 01:57:20;;;;;;;28.62;19.25;;;;;;;1.64;100.00;100704.87;1729162;83;21167;-86
2021/04/04 01:59:49;;;;;;;32.65;21.00;;;;;;;1.68;100.00;100703.84;1716508;83;22373;-86
2021/04/04 02:02:17;;;;;;;34.33;22.52;;;;;;;1.72;100.00;100707.99;1729164;83;21174;-86
2021/04/04 02:04:46;;;;;;;30.85;21.55;;;;;;;1.77;100.00;100705.23;1716413;83;21239;-86
2021/04/04 02:07:16;;;;;;;30.05;20.92;;;;;;;1.81;100.00;100710.20;1729151;83;21530;-86
2021/04/04 02:09:46;;;;;;;25.45;18.17;;;;;;;1.84;100.00;100710.09;1729191;83;21187;-86
2021/04/04 02:12:17;;;;;;;23.02;16.40;;;;;;;1.87;100.00;100712.98;1729144;83;21134;-86
2021/04/04 02:14:47;;;;;;;23.30;16.10;;;;;;;1.88;100.00;100706.96;1729170;83;21230;-86
2021/04/04 02:17:17;;;;;;;22.42;15.90;;;;;;;1.88;100.00;100710.35;1716548;83;21243;-86
2021/04/04 02:19:47;;;;;;;25.77;17.45;;;;;;;1.92;100.00;100712.82;1729339;83;21209;-86
2021/04/04 02:22:16;;;;;;;29.70;20.20;;;;;;;1.90;100.00;100720.59;1716559;83;21254;-86
2021/04/04 02:24:46;;;;;;;28.90;19.87;;;;;;;1.91;100.00;100718.84;1729145;83;21384;-86
2021/04/04 02:27:15;;;;;;;27.23;19.23;;;;;;;1.92;100.00;100714.95;1716679;83;21139;-86
2021/04/04 02:29:43;;;;;;;27.25;19.50;;;;;;;1.96;100.00;100709.26;1729057;83;21186;-86
2021/04/04 02:32:12;;;;;;;27.93;20.88;;;;;;;1.99;100.00;100719.39;1716413;83;21191;-86
2021/04/04 02:34:44;;;;;;;28.47;20.30;;;;;;;1.99;100.00;100719.39;1729192;83;21586;-86
2021/04/04 02:37:15;;;;;;;28.83;19.98;;;;;;;2.00;100.00;100721.08;1729210;83;21215;-86
2021/04/04 02:39:51;;;;;;;26.02;18.85;;;;;;;2.01;100.00;100725.32;1716410;83;21206;-86
2021/04/04 02:42:22;;;;;;;25.08;17.32;;;;;;;2.01;100.00;100725.32;1729059;83;21581;-86
2021/04/04 02:44:53;;;;;;;;;;;;;;;2.03;100.00;100723.54;1719122;83;21539;-86
2021/04/04 02:47:38;;;;;;;21.23;15.45;;;;;;;2.06;100.00;100723.41;1696617;84;26694;-86
2021/04/04 02:50:10;;;;;;;24.55;18.23;;;;;;;2.07;100.00;100723.80;1728455;83;21390;-86
2021/04/04 02:52:42;;;;;;;24.72;18.23;;;;;;;2.08;100.00;100725.48;1716476;83;21195;-86
2021/04/04 02:55:12;;;;;;;23.32;18.45;;;;;;;2.09;100.00;100728.44;1725576;83;21206;-86
2021/04/04 02:57:46;;;;;;;26.15;17.82;;;;;;;2.10;100.00;100724.13;1716435;83;21096;-86
2021/04/04 03:00:17;;;;;;;23.47;18.17;;;;;;;2.12;100.00;100724.91;1729102;83;21134;-86
2021/04/04 03:02:45;;;;;;;24.95;18.57;;;;;;;2.13;100.00;100719.70;1716416;83;21444;-86
2021/04/04 03:05:15;;;;;;;23.55;17.37;;;;;;;2.12;100.00;100727.05;1728988;83;21711;-86
2021/04/04 03:07:45;;;;;;;24.18;18.17;;;;;;;2.09;100.00;100730.16;1729099;83;21178;-86
2021/04/04 03:10:13;;;;;;;22.75;16.70;;;;;;;2.04;100.00;100732.92;1716412;83;21155;-86
2021/04/04 03:12:44;;;;;;;24.77;18.23;;;;;;;1.97;100.00;100726.31;1698610;83;21162;-86
2021/04/04 03:15:15;;;;;;;26.13;19.07;;;;;;;1.92;100.00;100732.94;1716416;83;21491;-85
2021/04/04 03:17:44;;;;;;;24.92;17.57;;;;;;;1.89;100.00;100730.01;1729085;83;21190;-85
2021/04/04 03:20:14;;;;;;;25.12;15.98;;;;;;;1.89;100.00;100736.43;1729068;82;21195;-86
2021/04/04 03:22:46;;;;;;;26.42;18.40;;;;;;;1.92;100.00;100735.94;1729044;83;21186;-86
2021/04/04 03:25:15;;;;;;;24.52;18.15;;;;;;;1.96;100.00;100738.80;1728899;81;21554;-85
2021/04/04 03:27:47;;;;;;;22.67;16.93;;;;;;;2.00;100.00;100744.20;1729016;83;21373;-85
2021/04/04 03:33:08;;;;;;;23.95;17.57;;;;;;;2.02;100.00;100752.23;1729259;83;21138;-84
2021/04/04 03:35:38;;;;;;;23.83;17.40;;;;;;;2.04;100.00;100760.72;1729194;81;21127;-84
2021/04/04 03:38:09;;;;;;;24.05;18.00;;;;;;;2.04;100.00;100756.05;1729180;83;21642;-84
2021/04/04 03:40:37;;;;;;;25.23;18.87;;;;;;;2.02;100.00;100761.22;1729222;83;22300;-84
2021/04/04 03:43:16;;;;;;;27.90;18.55;;;;;;;1.99;100.00;100760.06;1716271;83;21271;-84
2021/04/04 03:45:45;;;;;;;27.73;19.23;;;;;;;1.98;100.00;100764.80;1727116;83;21163;-85
2021/04/04 03:48:13;;;;;;;25.92;18.45;;;;;;;1.98;100.00;100772.94;1716420;83;21183;-84
2021/04/04 03:50:43;;;;;;;26.48;17.90;;;;;;;1.98;100.00;100769.09;1716311;83;21088;-84
2021/04/04 03:53:12;;;;;;;24.37;17.85;;;;;;;2.03;100.00;100769.78;1695528;83;22309;-86
2021/04/04 03:55:43;;;;;;;21.95;16.87;;;;;;;2.09;100.00;100766.13;1716240;83;21171;-85
2021/04/04 03:58:13;;;;;;;22.10;16.48;;;;;;;2.14;100.00;100768.09;1729377;83;21091;-86
2021/04/04 04:00:44;;;;;;;23.92;18.30;;;;;;;2.18;100.00;100769.20;1716342;83;21124;-86
2021/04/04 04:03:15;;;;;;;24.90;17.20;;;;;;;2.23;100.00;100769.03;1724880;83;21627;-86
2021/04/04 04:05:46;;;;;;;24.82;18.87;;;;;;;2.26;100.00;100775.78;1728932;83;21341;-86
2021/04/04 04:08:20;;;;;;;24.70;18.20;;;;;;;2.29;100.00;100782.08;1729112;83;21226;-86
2021/04/04 04:10:49;;;;;;;25.80;18.62;;;;;;;2.34;100.00;100784.05;1716457;83;21553;-86
2021/04/04 04:13:19;;;;;;;23.57;17.70;;;;;;;2.36;100.00;100781.80;1729125;83;21158;-85
2021/04/04 04:15:51;;;;;;;23.67;17.80;;;;;;;2.39;100.00;100778.27;1716473;83;21136;-85
2021/04/04 04:18:20;;;;;;;21.85;16.95;;;;;;;2.41;100.00;100783.34;1728570;83;21347;-86
2021/04/04 04:20:49;;;;;;;24.80;16.77;;;;;;;2.43;100.00;100788.84;1729223;83;21191;-85
2021/04/04 04:23:19;;;;;;;19.40;15.38;;;;;;;2.45;100.00;100797.30;1716284;83;21218;-85
2021/04/04 04:25:54;;;;;;;26.52;18.45;;;;;;;2.47;100.00;100791.66;1729222;83;21623;-86
2021/04/04 04:28:27;;;;;;;25.35;18.40;;;;;;;2.52;100.00;100796.63;1729284;83;21128;-85
2021/04/04 04:31:08;;;;;;;27.30;18.77;;;;;;;2.56;100.00;100799.48;1729301;83;21563;-85
2021/04/04 04:33:39;;;;;;;25.27;18.30;;;;;;;2.60;100.00;100795.89;1725935;83;21207;-86
2021/04/04 04:36:10;;;;;;;25.77;18.12;;;;;;;2.66;100.00;100789.67;1725096;81;21219;-87
2021/04/04 04:38:44;;;;;;;32.38;17.55;;;;;;;2.70;100.00;100798.92;1728775;83;26654;-86
2021/04/04 04:41:14;;;;;;;113.12;25.92;;;;;;;2.75;100.00;100794.45;1729072;83;21187;-87
2021/04/04 04:43:47;;;;;;;50.10;23.67;;;;;;;3.13;100.00;100798.50;1716369;83;21500;-87
2021/04/04 04:46:17;;;;;;;32.60;22.13;;;;;;;3.63;100.00;100790.00;1728040;83;21175;-87
2021/04/04 04:48:47;;;;;;;31.05;22.48;;;;;;;4.00;100.00;100791.41;1732504;81;21594;-87
2021/04/04 04:51:22;;;;;;;28.35;22.02;;;;;;;4.02;100.00;100795.59;1732625;82;21161;-86
2021/04/04 04:53:50;;;;;;;31.82;23.02;;;;;;;3.94;100.00;100796.38;1734352;81;21079;-87
2021/04/04 04:56:20;;;;;;;33.38;23.40;;;;;;;3.85;100.00;100805.34;1734566;82;22258;-87
2021/04/04 04:58:48;;;;;;;31.73;23.50;;;;;;;3.81;100.00;100802.96;1734427;81;21475;-86
2021/04/04 05:01:20;;;;;;;37.50;25.50;;;;;;;3.79;100.00;100805.61;1734339;82;21111;-87
2021/04/04 05:03:48;;;;;;;;;;;;;;;3.78;100.00;100798.78;1729940;82;21224;-87
2021/04/04 05:06:18;;;;;;;33.10;23.18;;;;;;;3.77;100.00;100808.27;1727462;83;20497;-87
2021/04/04 05:08:48;;;;;;;32.20;23.05;;;;;;;3.79;100.00;100803.04;1727670;83;21270;-87
2021/04/04 05:11:19;;;;;;;32.88;23.20;;;;;;;3.84;100.00;100806.70;1727332;83;21217;-87
2021/04/04 05:17:37;;;;;;;35.45;24.67;;;;;;;3.84;100.00;100817.86;1727780;83;20255;-89
2021/04/04 05:20:09;;;;;;;44.18;23.67;;;;;;;4.09;100.00;100819.33;1727994;83;21158;-89
2021/04/04 05:22:39;;;;;;;61.28;24.52;;;;;;;4.09;100.00;100819.33;1698863;83;21569;-87
2021/04/04 05:25:08;;;;;;;31.73;22.90;;;;;;;4.37;100.00;100825.36;1728949;81;21194;-87
2021/04/04 05:27:36;;;;;;;32.75;21.95;;;;;;;4.64;100.00;100824.17;1729120;81;21232;-87
2021/04/04 05:30:10;;;;;;;34.98;21.68;;;;;;;4.78;100.00;100827.37;1729329;82;21151;-87
2021/04/04 05:32:47;;;;;;;35.45;21.97;;;;;;;4.82;100.00;100829.73;1729326;82;21528;-86
2021/04/04 05:35:22;;;;;;;36.15;22.42;;;;;;;4.90;100.00;100822.47;1722791;82;22152;-88
2021/04/04 05:37:53;;;;;;;32.08;20.77;;;;;;;4.99;100.00;100827.66;1720953;82;21223;-88
2021/04/04 05:40:25;;;;;;;23.85;18.65;;;;;;;5.13;100.00;100827.43;1730824;81;21598;-87
2021/04/04 05:43:01;;;;;;;22.62;17.50;;;;;;;5.23;100.00;100834.27;1726416;82;21174;-88
2021/04/04 05:45:43;;;;;;;23.47;17.37;;;;;;;5.34;100.00;100843.15;1724360;81;21194;-88
2021/04/04 05:49:08;;;;;;;22.93;17.37;;;;;;;5.36;100.00;100846.50;1724185;82;22276;-89
2021/04/04 05:52:07;;;;;;;18.55;14.65;;;;;;;5.39;100.00;100845.97;1728632;83;21111;-88
2021/04/04 05:55:08;;;;;;;19.35;13.55;;;;;;;5.40;100.00;100848.47;1718149;83;21707;-89
2021/04/04 05:57:48;;;;;;;14.40;11.70;;;;;;;5.43;100.00;100851.35;1729336;83;21174;-88
2021/04/04 06:00:18;;;;;;;13.53;10.23;;;;;;;5.49;100.00;100847.16;1723072;83;21147;-89
2021/04/04 06:03:14;;;;;;;13.45;11.10;;;;;;;5.51;100.00;100844.05;1729682;82;21270;-89
2021/04/04 06:06:28;;;;;;;28.10;25.02;;;;;;;5.54;100.00;100849.08;1716408;83;21717;-88
2021/04/04 06:09:24;;;;;;;20.92;18.23;;;;;;;5.51;100.00;100851.81;1729131;83;21170;-89
2021/04/04 06:12:25;;;;;;;15.58;13.28;;;;;;;5.47;100.00;100845.14;1729373;83;21158;-87
2021/04/04 06:15:10;;;;;;;12.43;10.50;;;;;;;5.43;100.00;100849.63;1716663;83;21622;-88
2021/04/04 06:18:27;;;;;;;11.95;9.43;;;;;;;5.41;100.00;100848.86;1725602;82;21122;-89
2021/04/04 06:21:38;;;;;;;13.50;9.58;;;;;;;5.36;100.00;100849.08;1721240;83;21571;-89
2021/04/04 06:24:46;;;;;;;10.00;8.50;;;;;;;5.35;100.00;100851.28;1695146;83;21183;-88
2021/04/04 06:27:41;;;;;;;11.10;8.28;;;;;;;5.34;100.00;100856.06;1696672;83;21163;-89
2021/04/04 06:33:28;;;;;;;11.75;8.28;;;;;;;5.34;100.00;100873.31;1722223;83;21618;-89
2021/04/04 06:36:18;;;;;;;9.08;7.80;;;;;;;5.32;100.00;100878.56;1715993;83;21224;-88
2021/04/04 06:39:31;;;;;;;10.90;8.58;;;;;;;5.34;100.00;100874.61;1858443;76;22327;-87
2021/04/04 06:42:20;;;;;;;12.60;8.90;;;;;;;5.27;100.00;100881.80;1827954;77;21590;-88
2021/04/04 06:45:12;;;;;;;21.17;9.05;;;;;;;5.25;100.00;100884.09;1825071;77;21212;-88
2021/04/04 06:48:07;;;;;;;30.90;10.90;;;;;;;5.28;100.00;100891.23;1837979;77;21148;-89
2021/04/04 06:50:42;;;;;;;59.85;11.93;;;;;;;5.29;100.00;100895.95;1851813;76;21219;-89
2021/04/04 06:53:37;;;;;;;46.88;13.75;;;;;;;5.31;100.00;100895.41;1840049;77;21492;-89
2021/04/04 06:56:36;;;;;;;14.58;10.20;;;;;;;5.42;100.00;100899.60;1888812;76;22715;-87
2021/04/04 06:59:18;;;;;;;27.77;11.15;;;;;;;5.43;100.00;100904.30;1841255;77;21451;-87
2021/04/04 07:02:08;;;;;;;15.28;10.63;;;;;;;5.42;100.00;100903.91;1852065;77;21351;-87
2021/04/04 07:05:00;;;;;;;14.10;10.28;;;;;;;5.41;100.00;100895.81;1846924;77;21055;-87
2021/04/04 07:07:48;;;;;;;21.65;10.60;;;;;;;5.40;100.00;100900.12;1787627;79;21143;-87
2021/04/04 07:10:25;;;;;;;13.95;9.50;;;;;;;5.45;100.00;100906.36;1790543;78;21170;-86
2021/04/04 07:13:31;;;;;;;11.95;8.78;;;;;;;5.48;100.00;100911.39;1824555;78;21014;-86
2021/04/04 07:16:43;;;;;;;17.67;9.13;;;;;;;5.48;100.00;100906.22;1727334;80;21211;-86
2021/04/04 07:19:39;;;;;;;13.83;8.95;;;;;;;5.40;100.00;100893.67;1777466;80;21072;-85
2021/04/04 07:22:36;;;;;;;12.35;9.88;;;;;;;5.35;100.00;100893.07;1770825;81;21385;-87
2021/04/04 07:25:56;;;;;;;13.55;11.80;;;;;;;5.37;100.00;100889.94;1770405;80;21120;-89
2021/04/04 07:28:51;;;;;;;20.08;11.55;;;;;;;5.41;100.00;100891.94;1770781;80;21671;-88
2021/04/04 07:31:33;;;;;;;12.45;10.18;;;;;;;5.42;100.00;100891.00;1770622;81;21188;-88
2021/04/04 07:34:22;;;;;;;14.38;12.58;;;;;;;5.45;100.00;100898.61;1806585;78;21181;-88
2021/04/04 07:37:03;;;;;;;15.95;12.28;;;;;;;5.49;100.00;100888.49;1785309;79;21180;-87
2021/04/04 07:39:54;;;;;;;21.10;13.15;;;;;;;5.49;100.00;100894.52;1789126;78;21139;-86
2021/04/04 07:42:40;;;;;;;17.50;14.03;;;;;;;5.50;100.00;100896.19;1819216;78;21046;-87
2021/04/04 07:45:32;;;;;;;19.52;14.25;;;;;;;5.56;100.00;100891.18;1795364;78;21081;-87
2021/04/04 07:48:30;;;;;;;24.87;16.12;;;;;;;5.62;100.00;100890.02;1805696;78;21239;-87
2021/04/04 07:51:22;;;;;;;21.60;16.45;;;;;;;5.65;100.00;100891.17;1805357;78;21144;-87
2021/04/04 07:54:07;;;;;;;23.73;14.70;;;;;;;5.64;100.00;100894.66;1777610;78;21156;-87
2021/04/04 07:56:47;;;;;;;25.32;17.65;;;;;;;5.63;100.00;100889.96;1807979;78;21200;-87
2021/04/04 07:59:29;;;;;;;25.00;17.95;;;;;;;5.64;100.00;100891.63;1802634;78;21201;-85
2021/04/04 08:02:18;;;;;;;24.98;18.10;;;;;;;5.65;100.00;100894.57;1799831;78;21176;-87
2021/04/04 08:04:50;;;;;;;29.35;19.12;;;;;;;5.63;100.00;100891.25;1807299;78;21186;-87
2021/04/04 08:07:54;;;;;;;25.75;18.37;;;;;;;5.66;100.00;100894.13;1821485;78;21162;-87
2021/04/04 08:10:42;;;;;;;22.73;18.62;;;;;;;5.74;100.00;100888.56;1815749;77;21567;-87
2021/04/04 08:13:40;;;;;;;24.27;19.05;;;;;;;5.80;100.00;100886.52;1804158;78;21410;-87
2021/04/04 08:16:26;;;;;;;22.25;18.45;;;;;;;5.85;100.00;100891.45;1795177;79;21202;-86
2021/04/04 08:18:54;;;;;;;27.00;20.50;;;;;;;5.91;100.00;100884.67;1791494;79;21165;-86
2021/04/04 08:21:28;;;;;;;26.87;20.85;;;;;;;6.00;100.00;100883.41;1800123;77;21130;-86
2021/04/04 08:24:28;;;;;;;24.63;19.17;;;;;;;6.04;100.00;100881.03;1786629;80;21575;-86
2021/04/04 08:27:08;;;;;;;21.42;18.48;;;;;;;6.08;100.00;100879.12;1786815;80;22433;-86
2021/04/04 08:29:50;;;;;;;24.72;18.12;;;;;;;6.13;100.00;100873.23;1784029;80;21123;-86
2021/04/04 08:32:50;;;;;;;21.25;15.48;;;;;;;6.18;100.00;100871.27;1814662;78;21138;-86
2021/04/04 08:38:48;;;;;;;17.90;14.78;;;;;;;6.24;100.00;100874.00;1810713;78;21897;-86
2021/04/04 08:41:26;;;;;;;19.92;15.08;;;;;;;6.28;100.00;100860.83;1810785;77;21200;-85
2021/04/04 08:43:59;;;;;;;16.95;13.22;;;;;;;6.30;100.00;100866.73;1793706;78;21119;-86
2021/04/04 08:46:37;;;;;;;15.35;11.88;;;;;;;6.34;100.00;100862.70;1811571;78;21171;-88
2021/04/04 08:49:05;;;;;;;14.50;12.78;;;;;;;6.35;100.00;100866.48;1810887;78;21214;-88
2021/04/04 08:51:39;;;;;;;15.78;13.45;;;;;;;6.41;100.00;100869.20;1828531;77;21107;-88
2021/04/04 08:54:20;;;;;;;16.87;13.05;;;;;;;6.45;100.00;100869.41;1756254;81;21380;-88
2021/04/04 08:56:56;;;;;;;14.58;12.10;;;;;;;6.47;100.00;100876.63;1760084;80;21155;-88
2021/04/04 08:59:29;;;;;;;14.83;12.18;;;;;;;6.49;100.00;100869.62;1780688;80;21235;-88
2021/04/04 09:02:05;;;;;;;15.63;12.05;;;;;;;6.52;100.00;100864.30;1788023;80;21132;-88
2021/04/04 09:04:40;;;;;;;17.65;13.18;;;;;;;6.56;100.00;100867.09;1821841;78;21566;-88
2021/04/04 09:07:10;;;;;;;15.45;11.97;;;;;;;6.54;100.00;100857.27;1821901;78;22109;-88
2021/04/04 09:13:14;;;;;;;13.38;11.45;;;;;;;6.59;100.00;100852.70;1800950;78;21528;-88
2021/04/04 09:16:12;;;;;;;14.80;11.00;;;;;;;6.61;100.00;100852.61;1796351;78;21120;-89
2021/04/04 09:18:53;;;;;;;19.75;10.28;;;;;;;6.71;100.00;100852.92;1792551;78;21162;-88
2021/04/04 09:21:33;;;;;;;16.62;10.10;;;;;;;6.79;100.00;100853.34;1795674;78;21359;-88
2021/04/04 09:24:03;;;;;;;;;;;;;;;6.87;100.00;100852.45;1795328;79;21073;-88
2021/04/04 09:27:06;;;;;;;13.18;9.70;;;;;;;6.93;100.00;100853.40;1805649;79;20269;-88
2021/04/04 09:29:39;;;;;;;11.57;9.08;;;;;;;7.02;100.00;100849.92;1789589;79;21158;-88
2021/04/04 09:32:18;;;;;;;14.87;9.00;;;;;;;7.10;100.00;100840.81;1788055;78;21117;-89
2021/04/04 09:34:49;;;;;;;8.98;7.90;;;;;;;7.13;100.00;100835.09;1776793;78;22112;-89
2021/04/04 09:37:26;;;;;;;;;;;;;;;7.20;100.00;100835.11;1784439;79;21106;-89
2021/04/04 09:39:57;;;;;;;10.05;8.00;;;;;;;7.21;100.00;100829.84;1802189;79;20489;-88
2021/04/04 09:42:31;;;;;;;8.88;7.92;;;;;;;7.26;100.00;100839.45;1802156;79;21576;-89
2021/04/04 09:45:27;;;;;;;9.98;7.65;;;;;;;7.27;100.00;100831.25;1801894;79;21118;-89
2021/04/04 09:47:55;;;;;;;13.00;8.80;;;;;;;7.32;100.00;100835.69;1768658;78;22123;-89
2021/04/04 09:50:28;;;;;;;13.50;10.55;;;;;;;7.40;100.00;100827.48;1787272;79;21181;-89
2021/04/04 09:52:58;;;;;;;13.95;11.18;;;;;;;7.46;100.00;100827.12;1791314;79;21155;-88
2021/04/04 09:55:27;;;;;;;13.15;11.35;;;;;;;7.52;100.00;100820.27;1789662;79;21849;-90
2021/04/04 09:58:05;;;;;;;13.35;11.97;;;;;;;7.56;100.00;100815.74;1790873;78;21147;-90
2021/04/04 10:00:44;;;;;;;17.15;12.95;;;;;;;7.60;100.00;100816.39;1774647;79;22126;-91
2021/04/04 10:07:45;;;;;;;15.58;13.48;;;;;;;7.77;100.00;100812.34;1800860;79;21103;-88
2021/04/04 10:14:19;;;;;;;18.55;14.87;;;;;;;7.89;100.00;100802.98;1779403;80;21210;-89
2021/04/04 10:17:09;;;;;;;17.85;13.83;;;;;;;8.07;100.00;100791.11;1734396;81;21381;-89
2021/04/04 10:19:55;;;;;;;17.00;14.60;;;;;;;8.14;100.00;100791.92;1784394;78;21213;-90
2021/04/04 10:22:24;;;;;;;17.25;14.07;;;;;;;8.23;100.00;100790.53;1733356;80;21210;-89
2021/04/04 10:24:53;;;;;;;17.42;12.70;;;;;;;8.35;100.00;100788.93;1767592;79;21123;-89
2021/04/04 10:27:29;;;;;;;15.72;13.98;;;;;;;8.45;100.00;100786.09;1794639;79;21114;-88
2021/04/04 10:30:20;;;;;;;16.48;14.78;;;;;;;8.53;100.00;100779.98;1794730;79;21358;-90
2021/04/04 10:32:51;;;;;;;14.98;13.45;;;;;;;8.61;100.00;100777.39;1786462;79;21118;-87
2021/04/04 10:35:31;;;;;;;;;;;;;;;8.65;100.00;100773.66;1787800;78;21158;-89
2021/04/04 10:38:08;;;;;;;17.25;15.10;;;;;;;8.73;100.00;100768.80;1762848;80;20531;-89
2021/04/04 10:40:55;;;;;;;16.15;14.43;;;;;;;8.82;100.00;100766.05;1768223;79;21189;-89
2021/04/04 10:43:37;;;;;;;16.42;14.60;;;;;;;8.86;100.00;100771.43;1786276;78;21359;-90
2021/04/04 10:46:13;;;;;;;17.65;14.20;;;;;;;8.91;100.00;100768.53;1718560;80;21167;-90
2021/04/04 10:48:45;;;;;;;15.68;14.07;;;;;;;8.86;100.00;100765.39;1771775;78;21155;-89
2021/04/04 10:51:17;;;;;;;1038.93;347.88;;;;;;;8.84;100.00;100768.95;1770134;79;21099;-90
2021/04/04 10:53:46;;;;;;;720.90;251.70;;;;;;;8.83;100.00;100758.64;1762065;81;21178;-90
2021/04/04 10:56:17;;;;;;;286.27;91.60;;;;;;;8.82;100.00;100761.72;1780431;79;22280;-89
2021/04/04 10:58:49;;;;;;;75.43;37.70;;;;;;;8.84;100.00;100759.00;1795323;79;21197;-89
2021/04/04 11:01:18;;;;;;;77.15;39.30;;;;;;;8.87;100.00;100760.56;1791331;79;21186;-89
2021/04/04 11:03:48;;;;;;;457.32;138.20;;;;;;;8.88;100.00;100758.34;1790314;79;21600;-90
2021/04/04 11:06:16;;;;;;;232.43;71.95;;;;;;;8.87;100.00;100754.07;1793596;79;21188;-91
2021/04/04 11:08:49;;;;;;;318.57;99.28;;;;;;;8.88;100.00;100747.50;1794528;79;22357;-90
2021/04/04 11:11:19;;;;;;;234.95;89.22;;;;;;;8.88;100.00;100744.05;1788785;79;21196;-91
2021/04/04 11:13:52;;;;;;;108.22;48.55;;;;;;;8.89;100.00;100747.88;1762222;80;21164;-91
2021/04/04 11:16:25;;;;;;;115.70;59.67;;;;;;;8.89;100.00;100750.92;1771099;80;21152;-91
2021/04/04 11:19:02;;;;;;;123.42;64.60;;;;;;;8.88;100.00;100747.50;1732349;81;21164;-91
2021/04/04 11:21:38;;;;;;;96.05;51.28;;;;;;;8.86;100.00;100749.81;1789804;79;21610;-91
2021/04/04 11:24:16;;;;;;;50.05;30.80;;;;;;;8.80;100.00;100746.69;1789503;80;21248;-91
2021/04/04 11:26:51;;;;;;;37.00;23.02;;;;;;;8.74;100.00;100750.14;1811082;77;21176;-92
2021/04/04 11:29:24;;;;;;;25.23;17.80;;;;;;;8.65;100.00;100751.59;1807665;78;21579;-91
2021/04/04 11:32:17;;;;;;;17.73;14.40;;;;;;;8.63;100.00;100750.84;1792418;80;21484;-91
2021/04/04 11:35:02;;;;;;;56.63;31.00;;;;;;;8.56;100.00;100749.58;1787666;80;21556;-92
2021/04/04 11:37:35;;;;;;;69.10;37.73;;;;;;;8.54;100.00;100743.20;1809135;77;21471;-92
2021/04/04 11:40:23;;;;;;;103.62;57.73;;;;;;;8.60;100.00;100746.69;1824863;78;21203;-92
2021/04/04 11:43:12;;;;;;;106.00;58.23;;;;;;;8.64;100.00;100738.23;1813725;77;21187;-92
2021/04/04 11:45:44;;;;;;;56.02;36.23;;;;;;;8.72;100.00;100739.05;1801096;77;21136;-92
2021/04/04 11:48:39;;;;;;;;;;;;;;;8.77;100.00;100736.49;1806413;77;21379;-92
2021/04/04 11:51:19;;;;;;;18.85;16.82;;;;;;;8.84;100.00;100736.48;1821618;78;20470;-93
2021/04/04 11:53:49;;;;;;;19.23;15.45;;;;;;;8.86;100.00;100740.72;1816678;77;21188;-92
2021/04/04 11:56:47;;;;;;;14.83;13.32;;;;;;;8.89;100.00;100744.42;1801358;77;21125;-92
2021/04/04 11:59:18;;;;;;;13.58;12.28;;;;;;;8.95;100.00;100741.41;1797729;78;21580;-92
2021/04/04 12:01:51;;;;;;;14.13;11.88;;;;;;;8.99;100.00;100738.99;1816349;77;21210;-92
2021/04/04 12:04:36;;;;;;;13.45;12.05;;;;;;;9.03;100.00;100735.24;1803376;78;22417;-93
2021/04/04 12:07:15;;;;;;;12.43;11.33;;;;;;;9.02;100.00;100741.37;1821807;78;21564;-91
2021/04/04 12:09:47;;;;;;;12.33;11.20;;;;;;;9.03;100.00;100737.84;1822046;77;21156;-90
2021/04/04 12:12:17;;;;;;;12.75;11.53;;;;;;;9.00;100.00;100734.98;1825913;78;21214;-90
2021/04/04 12:14:55;;;;;;;11.22;10.03;;;;;;;8.95;100.00;100735.77;1821929;78;21156;-91
2021/04/04 12:17:59;;;;;;;11.90;10.80;;;;;;;8.88;100.00;100728.02;1821897;78;21154;-91
2021/04/04 12:20:34;;;;;;;12.30;11.10;;;;;;;8.84;100.00;100727.40;1821835;78;21117;-92
2021/04/04 12:23:15;;;;;;;11.73;10.63;;;;;;;8.86;100.00;100730.33;1830739;78;21143;-89